createdAt,value
2023-01-17T00:02:18.643Z,2.25
2023-01-17T00:05:21.685Z,1.85
2023-01-17T00:08:07.433Z,2.47
2023-01-17T00:10:34.394Z,1.95
2023-01-17T00:13:03.327Z,2.00
2023-01-17T00:15:31.286Z,2.03
2023-01-17T00:17:58.731Z,1.90
2023-01-17T00:20:46.089Z,2.10
2023-01-17T00:23:36.888Z,1.85
2023-01-17T00:26:12.033Z,1.80
2023-01-17T00:28:40.424Z,1.90
2023-01-17T00:31:10.118Z,1.83
2023-01-17T00:36:05.413Z,1.80
2023-01-17T00:38:34.428Z,1.65
2023-01-17T00:41:07.765Z,1.40
2023-01-17T00:43:53.346Z,1.77
2023-01-17T00:46:39.260Z,1.40
2023-01-17T00:49:25.615Z,1.52
2023-01-17T00:52:11.244Z,1.63
2023-01-17T00:54:56.644Z,1.20
2023-01-17T00:57:42.158Z,1.50
2023-01-17T01:00:28.673Z,1.20
2023-01-17T01:03:14.085Z,1.50
2023-01-17T01:05:59.498Z,1.50
2023-01-17T01:08:47.535Z,1.42
2023-01-17T01:11:36.854Z,1.42
2023-01-17T01:14:23.573Z,1.40
2023-01-17T01:17:08.916Z,1.25
2023-01-17T01:19:54.347Z,1.27
2023-01-17T01:22:39.681Z,1.58
2023-01-17T01:25:25.845Z,1.42
2023-01-17T01:28:11.272Z,1.40
2023-01-17T01:30:56.892Z,1.55
2023-01-17T01:33:23.747Z,1.40
2023-01-17T01:35:54.945Z,1.55
2023-01-17T01:38:23.942Z,1.20
2023-01-17T01:40:53.408Z,1.50
2023-01-17T01:43:39.606Z,1.00
2023-01-17T01:46:07.259Z,1.08
2023-01-17T01:48:42.446Z,1.20
2023-01-17T01:51:13.901Z,1.15
2023-01-17T01:53:43.396Z,1.30
2023-01-17T01:56:12.495Z,1.10
2023-01-17T01:58:40.572Z,1.27
2023-01-17T02:01:08.441Z,1.38
2023-01-17T02:03:36.725Z,1.30
2023-01-17T02:06:32.919Z,1.15
2023-01-17T02:09:03.539Z,1.08
2023-01-17T02:11:31.870Z,1.13
2023-01-17T02:13:58.822Z,1.17
2023-01-17T02:16:46.776Z,1.20
2023-01-17T02:19:30.959Z,1.00
2023-01-17T02:22:00.572Z,1.05
2023-01-17T02:24:52.854Z,1.10
2023-01-17T02:27:27.464Z,0.93
2023-01-17T02:30:09.418Z,0.95
2023-01-17T02:32:47.703Z,1.00
2023-01-17T02:35:33.847Z,1.20
2023-01-17T02:38:00.691Z,1.10
2023-01-17T02:40:33.822Z,1.08
2023-01-17T02:43:05.705Z,1.10
2023-01-17T02:45:32.631Z,1.10
2023-01-17T02:47:59.547Z,0.90
2023-01-17T02:50:32.950Z,1.13
2023-01-17T02:53:23.202Z,1.13
2023-01-17T02:56:17.997Z,0.90
2023-01-17T02:59:00.002Z,0.88
2023-01-17T03:01:37.957Z,1.05
2023-01-17T03:04:41.797Z,1.05
2023-01-17T03:07:21.500Z,0.80
2023-01-17T03:12:16.201Z,0.90
2023-01-17T03:14:43.138Z,0.93
2023-01-17T03:17:10.016Z,1.10
2023-01-17T03:19:36.904Z,1.00
2023-01-17T03:22:04.965Z,1.10
2023-01-17T03:24:31.844Z,0.80
2023-01-17T03:26:58.722Z,1.08
2023-01-17T03:29:25.684Z,1.00
2023-01-17T03:31:52.611Z,0.90
2023-01-17T03:34:19.502Z,1.15
2023-01-17T03:36:46.359Z,1.02
2023-01-17T03:39:13.247Z,1.23
2023-01-17T03:41:40.178Z,0.95
2023-01-17T03:44:07.148Z,0.95
2023-01-17T03:46:34.008Z,1.10
2023-01-17T03:49:00.956Z,0.70
2023-01-17T03:51:27.871Z,0.93
2023-01-17T03:53:54.766Z,0.88
2023-01-17T03:56:21.740Z,0.95
2023-01-17T03:58:48.640Z,0.98
2023-01-17T04:01:15.650Z,0.90
2023-01-17T04:03:42.617Z,0.90
2023-01-17T04:06:09.543Z,0.80
2023-01-17T04:08:36.641Z,0.75
2023-01-17T04:13:30.866Z,0.65
2023-01-17T04:15:57.840Z,1.02
2023-01-17T04:18:25.067Z,1.10
2023-01-17T04:20:52.564Z,0.73
2023-01-17T04:23:19.512Z,1.05
2023-01-17T04:25:46.474Z,1.05
2023-01-17T04:28:13.903Z,0.85
2023-01-17T04:30:40.987Z,0.73
2023-01-17T04:33:07.924Z,0.93
2023-01-17T04:35:35.039Z,0.80
2023-01-17T04:38:01.933Z,1.00
2023-01-17T04:40:29.637Z,1.00
2023-01-17T04:42:57.930Z,0.80
2023-01-17T04:45:24.829Z,0.88
2023-01-17T04:47:51.775Z,0.80
2023-01-17T04:50:19.144Z,0.95
2023-01-17T04:52:46.035Z,1.00
2023-01-17T04:55:12.944Z,0.70
2023-01-17T04:57:39.852Z,0.80
2023-01-17T05:00:07.454Z,0.90
2023-01-17T05:02:34.436Z,0.95
2023-01-17T05:05:01.372Z,0.93
2023-01-17T05:07:28.250Z,0.80
2023-01-17T05:09:55.146Z,0.98
2023-01-17T05:12:22.048Z,0.70
2023-01-17T05:14:48.986Z,0.70
2023-01-17T05:17:15.956Z,1.00
2023-01-17T05:19:42.894Z,1.00
2023-01-17T05:22:15.598Z,0.70
2023-01-17T05:24:43.724Z,0.82
2023-01-17T05:27:11.663Z,0.98
2023-01-17T05:29:38.929Z,1.10
2023-01-17T05:32:06.227Z,1.08
2023-01-17T05:34:33.142Z,0.82
2023-01-17T05:37:00.078Z,0.80
2023-01-17T05:39:27.044Z,0.93
2023-01-17T05:41:53.931Z,0.68
2023-01-17T05:44:20.862Z,1.00
2023-01-17T05:46:47.725Z,0.80
2023-01-17T05:49:14.604Z,0.77
2023-01-17T05:51:41.490Z,1.00
2023-01-17T05:54:08.402Z,1.00
2023-01-17T05:56:35.493Z,1.10
2023-01-17T05:59:02.516Z,1.00
2023-01-17T06:01:29.505Z,53.47
2023-01-17T06:03:56.424Z,94.00
2023-01-17T06:06:23.564Z,79.63
2023-01-17T06:08:50.526Z,68.95
2023-01-17T06:11:18.696Z,65.28
2023-01-17T06:13:45.704Z,59.70
2023-01-17T06:16:12.656Z,53.85
2023-01-17T06:18:39.692Z,79.38
2023-01-17T06:21:06.700Z,105.05
2023-01-17T06:23:33.595Z,94.35
2023-01-17T06:26:03.936Z,85.03
2023-01-17T06:28:30.932Z,75.05
2023-01-17T06:30:57.948Z,65.40
2023-01-17T06:33:24.890Z,61.85
2023-01-17T06:35:52.740Z,59.35
2023-01-17T06:38:20.033Z,54.00
2023-01-17T06:40:47.182Z,65.60
2023-01-17T06:43:14.156Z,85.63
2023-01-17T06:45:41.113Z,82.25
2023-01-17T06:48:08.026Z,81.50
2023-01-17T06:50:35.186Z,72.60
2023-01-17T06:53:06.779Z,67.70
2023-01-17T06:55:34.666Z,63.22
2023-01-17T06:58:03.058Z,60.72
2023-01-17T07:00:31.572Z,54.83
2023-01-17T07:02:58.630Z,52.67
2023-01-17T07:05:26.108Z,49.35
2023-01-17T07:07:53.635Z,44.45
2023-01-17T07:10:21.241Z,43.33
2023-01-17T07:12:48.223Z,40.97
2023-01-17T07:15:15.168Z,38.10
2023-01-17T07:17:42.136Z,37.85
2023-01-17T07:20:09.717Z,36.88
2023-01-17T07:22:37.842Z,36.38
2023-01-17T07:25:05.562Z,31.85
2023-01-17T07:27:33.697Z,31.67
2023-01-17T07:30:00.615Z,30.85
2023-01-17T07:32:27.899Z,30.50
2023-01-17T07:34:56.853Z,28.15
2023-01-17T07:37:25.989Z,27.95
2023-01-17T07:39:53.811Z,34.30
2023-01-17T07:42:23.221Z,85.40
2023-01-17T07:44:50.916Z,78.68
2023-01-17T07:47:17.824Z,73.07
2023-01-17T07:49:44.748Z,69.55
2023-01-17T07:52:11.719Z,63.40
2023-01-17T07:54:38.648Z,60.95
2023-01-17T07:57:05.612Z,54.15
2023-01-17T07:59:34.494Z,51.92
2023-01-17T08:02:01.704Z,50.10
2023-01-17T08:04:34.665Z,46.88
2023-01-17T08:07:02.284Z,45.90
2023-01-17T08:09:29.297Z,43.10
2023-01-17T08:11:56.238Z,42.10
2023-01-17T08:14:23.154Z,39.50
2023-01-17T08:16:50.045Z,40.63
2023-01-17T08:19:17.416Z,37.30
2023-01-17T08:21:44.544Z,37.15
2023-01-17T08:24:13.781Z,36.83
2023-01-17T08:26:41.289Z,35.60
2023-01-17T08:29:09.336Z,34.97
2023-01-17T08:31:36.735Z,33.92
2023-01-17T08:34:04.242Z,32.53
2023-01-17T08:36:31.368Z,32.03
2023-01-17T08:38:58.957Z,31.38
2023-01-17T08:41:27.821Z,31.05
2023-01-17T08:43:54.821Z,32.20
2023-01-17T08:46:22.488Z,29.77
2023-01-17T08:48:54.066Z,27.73
2023-01-17T08:51:21.069Z,28.58
2023-01-17T08:53:48.652Z,26.83
2023-01-17T08:56:15.655Z,27.33
2023-01-17T08:58:42.674Z,26.25
2023-01-17T09:01:09.703Z,24.92
2023-01-17T09:03:38.911Z,26.27
2023-01-17T09:06:10.621Z,25.83
2023-01-17T09:08:38.076Z,26.10
2023-01-17T09:11:09.895Z,26.98
2023-01-17T09:13:37.184Z,78.38
2023-01-17T09:16:05.265Z,82.35
2023-01-17T09:18:33.023Z,79.50
2023-01-17T09:20:59.985Z,69.75
2023-01-17T09:23:29.594Z,79.28
2023-01-17T09:25:58.956Z,95.75
2023-01-17T09:28:26.927Z,98.35
2023-01-17T09:30:54.517Z,88.10
2023-01-17T09:33:23.236Z,81.47
2023-01-17T09:35:50.448Z,71.63
2023-01-17T09:38:17.524Z,63.42
2023-01-17T09:40:47.230Z,64.68
2023-01-17T09:45:51.743Z,54.28
2023-01-17T09:48:28.177Z,54.85
2023-01-17T09:51:10.000Z,50.67
2023-01-17T09:53:40.229Z,48.72
2023-01-17T09:56:12.415Z,46.55
2023-01-17T09:59:09.234Z,45.00
2023-01-17T10:01:57.811Z,43.95
2023-01-17T10:05:08.822Z,40.80
2023-01-17T10:07:50.931Z,39.45
2023-01-17T10:10:57.863Z,39.72
2023-01-17T10:13:41.222Z,36.35
2023-01-17T10:16:32.742Z,37.67
2023-01-17T10:19:35.867Z,62.40
2023-01-17T10:22:26.985Z,113.65
2023-01-17T10:25:09.130Z,105.60
2023-01-17T10:27:40.413Z,78.03
2023-01-17T10:33:21.406Z,62.72
2023-01-17T10:35:54.291Z,62.03
2023-01-17T10:38:25.140Z,57.53
2023-01-17T10:40:59.661Z,56.80
2023-01-17T10:44:01.841Z,55.25
2023-01-17T10:46:36.157Z,53.95
2023-01-17T10:49:03.822Z,52.30
2023-01-17T10:52:00.187Z,48.55
2023-01-17T10:55:08.816Z,50.35
2023-01-17T10:57:42.723Z,71.78
2023-01-17T11:00:40.164Z,106.53
2023-01-17T11:03:07.692Z,102.95
2023-01-17T11:05:34.670Z,91.43
2023-01-17T11:08:09.910Z,80.22
2023-01-17T11:10:39.945Z,73.93
2023-01-17T11:13:26.780Z,67.80
2023-01-17T11:15:57.752Z,62.47
2023-01-17T11:18:30.445Z,63.45
2023-01-17T11:21:21.459Z,58.42
2023-01-17T11:23:57.339Z,53.92
2023-01-17T11:26:30.992Z,54.50
2023-01-17T11:29:36.115Z,54.83
2023-01-17T11:32:22.548Z,66.40
2023-01-17T11:35:09.765Z,79.60
2023-01-17T11:37:37.819Z,75.35
2023-01-17T11:40:16.745Z,64.85
2023-01-17T11:42:43.658Z,61.33
2023-01-17T11:45:28.582Z,58.55
2023-01-17T11:48:16.227Z,55.05
2023-01-17T11:50:55.189Z,54.72
2023-01-17T11:53:31.481Z,58.20
2023-01-17T11:56:11.435Z,88.88
2023-01-17T11:58:41.431Z,89.18
2023-01-17T12:01:32.399Z,83.38
2023-01-17T12:04:26.099Z,73.50
2023-01-17T12:07:14.209Z,64.93
2023-01-17T12:12:44.199Z,59.67
2023-01-17T12:15:23.517Z,56.97
2023-01-17T12:18:06.961Z,55.35
2023-01-17T12:20:39.673Z,53.80
2023-01-17T12:23:46.403Z,53.35
2023-01-17T12:26:28.743Z,51.83
2023-01-17T12:29:28.808Z,52.35
2023-01-17T12:32:01.627Z,49.53
2023-01-17T12:34:34.575Z,49.72
2023-01-17T12:37:23.219Z,46.88
2023-01-17T12:39:57.167Z,45.92
2023-01-17T12:42:28.408Z,44.92
2023-01-17T12:45:09.448Z,44.45
2023-01-17T12:47:40.732Z,45.17
2023-01-17T12:50:07.911Z,42.63
2023-01-17T12:52:51.237Z,43.30
2023-01-17T12:55:37.801Z,42.33
2023-01-17T12:58:07.554Z,41.58
2023-01-17T13:03:35.179Z,40.10
2023-01-17T13:06:02.948Z,37.50
2023-01-17T13:08:46.591Z,39.08
2023-01-17T13:11:50.201Z,37.95
2023-01-17T13:14:17.121Z,37.35
2023-01-17T13:16:50.669Z,38.13
2023-01-17T13:19:45.477Z,37.55
2023-01-17T13:22:18.618Z,35.92
2023-01-17T13:24:58.745Z,35.42
2023-01-17T13:27:34.775Z,35.50
2023-01-17T13:30:32.103Z,35.08
2023-01-17T13:33:20.863Z,34.05
2023-01-17T13:36:03.703Z,32.90
2023-01-17T13:38:33.910Z,31.30
2023-01-17T13:41:07.240Z,32.42
2023-01-17T13:43:40.759Z,31.27
2023-01-17T13:46:07.922Z,32.13
2023-01-17T13:48:40.760Z,29.05
2023-01-17T13:51:09.447Z,29.80
2023-01-17T13:53:39.143Z,30.83
2023-01-17T13:58:54.569Z,29.45
2023-01-17T14:01:24.596Z,28.73
2023-01-17T14:03:51.828Z,29.20
2023-01-17T14:06:52.892Z,27.45
2023-01-17T14:09:29.651Z,27.40
2023-01-17T14:12:19.798Z,28.08
2023-01-17T14:14:52.124Z,27.58
2023-01-17T14:17:20.492Z,26.75
2023-01-17T14:19:49.841Z,25.75
2023-01-17T14:22:22.674Z,46.83
2023-01-17T14:25:09.443Z,68.85
2023-01-17T14:27:43.671Z,59.58
2023-01-17T14:30:29.794Z,54.22
2023-01-17T14:33:02.457Z,47.38
2023-01-17T14:35:32.084Z,43.90
2023-01-17T14:38:03.214Z,41.70
2023-01-17T14:40:32.629Z,39.83
2023-01-17T14:43:14.083Z,38.22
2023-01-17T14:45:41.644Z,37.78
2023-01-17T14:48:22.266Z,37.53
2023-01-17T14:50:51.148Z,36.13
2023-01-17T14:53:21.020Z,33.83
2023-01-17T14:55:47.911Z,34.47
2023-01-17T14:58:23.195Z,32.83
2023-01-17T15:01:05.560Z,33.30
2023-01-17T15:03:50.148Z,32.03
2023-01-17T15:06:20.116Z,31.55
2023-01-17T15:08:47.265Z,37.88
2023-01-17T15:11:22.447Z,67.70
2023-01-17T15:13:50.781Z,67.80
2023-01-17T15:16:31.045Z,62.38
2023-01-17T15:18:58.020Z,61.15
2023-01-17T15:21:31.391Z,60.53
2023-01-17T15:24:04.414Z,70.15
2023-01-17T15:26:34.607Z,71.78
2023-01-17T15:29:08.722Z,73.40
2023-01-17T15:31:43.039Z,70.03
2023-01-17T15:34:35.554Z,70.85
2023-01-17T15:37:12.766Z,67.55
2023-01-17T15:39:40.802Z,66.75
2023-01-17T15:42:23.133Z,67.25
2023-01-17T15:47:32.713Z,61.38
2023-01-17T15:50:01.245Z,59.95
2023-01-17T15:52:28.993Z,57.80
2023-01-17T15:55:12.558Z,55.70
2023-01-17T15:57:39.878Z,50.20
2023-01-17T16:00:14.847Z,46.88
2023-01-17T16:02:46.277Z,46.28
2023-01-17T16:05:23.108Z,43.95
2023-01-17T16:07:51.081Z,42.40
2023-01-17T16:10:20.592Z,43.95
2023-01-17T16:12:48.887Z,40.90
2023-01-17T16:15:18.321Z,37.90
2023-01-17T16:17:47.619Z,37.13
2023-01-17T16:20:33.605Z,36.85
2023-01-17T16:23:00.697Z,31.92
2023-01-17T16:25:32.467Z,29.42
2023-01-17T16:28:00.169Z,30.73
2023-01-17T16:30:27.581Z,29.85
2023-01-17T16:32:56.560Z,29.83
2023-01-17T16:35:25.727Z,30.70
2023-01-17T16:37:55.530Z,28.70
2023-01-17T16:40:24.563Z,27.67
2023-01-17T16:42:51.525Z,30.45
2023-01-17T16:45:18.863Z,28.17
2023-01-17T16:47:47.055Z,27.35
2023-01-17T16:50:16.936Z,26.45
2023-01-17T16:52:43.910Z,25.95
2023-01-17T16:55:13.862Z,26.45
2023-01-17T16:57:40.860Z,25.27
2023-01-17T17:00:09.847Z,24.38
2023-01-17T17:02:38.719Z,24.27
2023-01-17T17:05:09.541Z,25.48
2023-01-17T17:07:42.712Z,23.83
2023-01-17T17:10:10.679Z,23.20
2023-01-17T17:12:37.648Z,24.95
2023-01-17T17:15:05.467Z,23.40
2023-01-17T17:17:40.435Z,22.15
2023-01-17T17:20:12.718Z,22.20
2023-01-17T17:22:44.136Z,22.77
2023-01-17T17:25:16.024Z,23.10
2023-01-17T17:27:43.044Z,22.08
2023-01-17T17:30:10.899Z,22.67
2023-01-17T17:32:37.872Z,21.25
2023-01-17T17:35:05.661Z,20.23
2023-01-17T17:37:32.645Z,34.35
2023-01-17T17:39:59.585Z,41.00
2023-01-17T17:42:26.527Z,58.05
2023-01-17T17:44:53.655Z,54.20
2023-01-17T17:47:20.573Z,62.22
2023-01-17T17:49:47.538Z,61.10
2023-01-17T17:52:14.466Z,63.92
2023-01-17T17:54:41.434Z,57.08
2023-01-17T17:57:08.593Z,60.38
2023-01-17T17:59:35.525Z,56.92
2023-01-17T18:02:02.514Z,44.25
2023-01-17T18:04:29.810Z,44.95
2023-01-17T18:06:59.573Z,44.88
2023-01-17T18:09:26.496Z,40.13
2023-01-17T18:11:53.693Z,38.40
2023-01-17T18:14:23.912Z,35.60
2023-01-17T18:16:51.301Z,37.03
2023-01-17T18:19:25.691Z,32.25
2023-01-17T18:21:53.278Z,32.60
2023-01-17T18:24:22.280Z,29.15
2023-01-17T18:26:57.634Z,29.45
2023-01-17T18:29:26.141Z,30.40
2023-01-17T18:31:54.373Z,25.00
2023-01-17T18:34:27.004Z,25.67
2023-01-17T18:36:54.366Z,24.73
2023-01-17T18:39:28.769Z,25.92
2023-01-17T18:41:56.021Z,22.90
2023-01-17T18:44:23.189Z,23.10
2023-01-17T18:46:58.086Z,22.77
2023-01-17T18:49:25.147Z,22.50
2023-01-17T18:51:52.051Z,21.58
2023-01-17T18:54:22.126Z,45.83
2023-01-17T18:56:49.217Z,97.72
2023-01-17T18:59:18.427Z,93.60
2023-01-17T19:01:45.907Z,99.18
2023-01-17T19:04:14.675Z,92.63
2023-01-17T19:06:43.655Z,94.03
2023-01-17T19:09:11.952Z,84.53
2023-01-17T19:11:39.288Z,78.57
2023-01-17T19:14:06.786Z,64.07
2023-01-17T19:16:36.639Z,67.30
2023-01-17T19:19:08.205Z,57.30
2023-01-17T19:21:35.297Z,53.53
2023-01-17T19:24:02.893Z,49.28
2023-01-17T19:26:30.123Z,45.10
2023-01-17T19:29:00.807Z,42.40
2023-01-17T19:31:29.972Z,41.05
2023-01-17T19:33:58.623Z,37.83
2023-01-17T19:36:33.537Z,36.13
2023-01-17T19:39:05.555Z,34.95
2023-01-17T19:41:34.576Z,34.50
2023-01-17T19:44:04.359Z,32.00
2023-01-17T19:46:32.488Z,31.23
2023-01-17T19:48:59.705Z,30.05
2023-01-17T19:51:27.028Z,28.88
2023-01-17T19:53:54.064Z,27.70
2023-01-17T19:56:25.598Z,27.33
2023-01-17T19:58:52.983Z,26.48
2023-01-17T20:01:28.832Z,25.33
2023-01-17T20:03:58.054Z,24.15
2023-01-17T20:06:28.879Z,24.50
2023-01-17T20:11:25.364Z,23.65
2023-01-17T20:13:54.416Z,22.83
2023-01-17T20:16:22.511Z,20.90
2023-01-17T20:18:49.697Z,51.10
2023-01-17T20:21:22.093Z,128.10
2023-01-17T20:23:50.347Z,136.65
2023-01-17T20:26:19.458Z,140.73
2023-01-17T20:28:48.166Z,133.07
2023-01-17T20:31:18.289Z,143.50
2023-01-17T20:33:47.017Z,139.48
2023-01-17T20:36:16.040Z,147.07
2023-01-17T20:38:43.942Z,188.52
2023-01-17T20:41:29.098Z,222.85
2023-01-17T20:43:57.951Z,270.23
2023-01-17T20:46:26.786Z,272.63
2023-01-17T20:48:55.515Z,269.77
2023-01-17T20:51:24.250Z,254.68
2023-01-17T20:53:53.654Z,242.40
2023-01-17T20:56:20.871Z,223.43
2023-01-17T20:58:51.566Z,209.13
2023-01-17T21:01:19.327Z,197.88
2023-01-17T21:03:48.020Z,175.25
2023-01-17T21:06:15.265Z,167.77
2023-01-17T21:08:44.491Z,146.52
2023-01-17T21:11:13.603Z,137.02
2023-01-17T21:13:40.954Z,133.55
2023-01-17T21:16:10.191Z,124.80
2023-01-17T21:18:37.165Z,120.65
2023-01-17T21:21:05.746Z,115.82
2023-01-17T21:23:33.724Z,106.43
2023-01-17T21:26:00.677Z,105.68
2023-01-17T21:28:29.640Z,95.93
2023-01-17T21:33:25.944Z,97.80
2023-01-17T21:35:53.042Z,114.32
2023-01-17T21:38:20.046Z,112.50
2023-01-17T21:40:47.103Z,116.65
2023-01-17T21:43:14.121Z,119.15
2023-01-17T21:45:42.190Z,112.80
2023-01-17T21:48:13.640Z,114.20
2023-01-17T21:50:40.839Z,103.70
2023-01-17T21:53:10.041Z,107.90
2023-01-17T21:55:56.593Z,92.00
2023-01-17T21:58:41.899Z,89.15
2023-01-17T22:01:18.130Z,87.95
2023-01-17T22:03:49.221Z,86.60
2023-01-17T22:06:16.375Z,79.55
2023-01-17T22:08:43.692Z,79.82
2023-01-17T22:11:13.161Z,73.60
2023-01-17T22:13:41.938Z,73.00
2023-01-17T22:16:11.530Z,69.07
2023-01-17T22:18:40.974Z,65.97
2023-01-17T22:21:21.996Z,71.13
2023-01-17T22:23:51.682Z,66.55
2023-01-17T22:28:45.792Z,66.40
2023-01-17T22:31:19.181Z,63.28
2023-01-17T22:33:47.110Z,65.18
2023-01-17T22:36:15.303Z,78.45
2023-01-17T22:38:43.041Z,108.80
2023-01-17T22:41:13.171Z,114.93
2023-01-17T22:43:45.115Z,113.82
2023-01-17T22:46:15.021Z,104.68
2023-01-17T22:48:42.217Z,99.85
2023-01-17T22:51:14.265Z,91.00
2023-01-17T22:53:42.391Z,87.82
2023-01-17T22:56:12.600Z,80.55
2023-01-17T22:58:42.320Z,79.25
2023-01-17T23:01:12.841Z,76.22
2023-01-17T23:06:20.047Z,71.78
2023-01-17T23:08:49.208Z,70.93
2023-01-17T23:11:46.290Z,69.35
2023-01-17T23:14:21.877Z,66.40
2023-01-17T23:17:18.680Z,64.95
2023-01-17T23:19:48.277Z,61.90
2023-01-17T23:25:04.984Z,60.78
2023-01-17T23:27:57.443Z,58.92
2023-01-17T23:30:38.450Z,56.15
2023-01-17T23:33:07.335Z,58.20
2023-01-17T23:35:41.299Z,56.78
2023-01-17T23:38:33.747Z,56.53
2023-01-17T23:41:28.247Z,51.15
2023-01-17T23:43:56.787Z,52.78
2023-01-17T23:46:25.491Z,54.92
2023-01-17T23:48:52.705Z,106.97
2023-01-17T23:51:19.695Z,126.82
2023-01-17T23:53:46.660Z,120.65
2023-01-17T23:56:23.322Z,113.93
2023-01-17T23:58:50.417Z,106.68
